sensor_id;sensor_type;location;lat;lon;timestamp;P1;durP1;ratioP1;P2;durP2;ratioP2
18931;SDS011;9598;50.954;3.112;2022-08-11T00:05:02;6.28;;;5.70;;
18931;SDS011;9598;50.954;3.112;2022-08-11T00:10:10;6.13;;;5.55;;
18931;SDS011;9598;50.954;3.112;2022-08-11T00:15:15;6.30;;;5.70;;
18931;SDS011;9598;50.954;3.112;2022-08-11T00:20:18;6.68;;;6.03;;
18931;SDS011;9598;50.954;3.112;2022-08-11T00:25:22;6.65;;;5.93;;
18931;SDS011;9598;50.954;3.112;2022-08-11T00:30:24;6.00;;;5.50;;
18931;SDS011;9598;50.954;3.112;2022-08-11T00:35:38;6.38;;;5.88;;
18931;SDS011;9598;50.954;3.112;2022-08-11T00:40:43;6.50;;;5.97;;
18931;SDS011;9598;50.954;3.112;2022-08-11T00:51:16;6.55;;;5.95;;
18931;SDS011;9598;50.954;3.112;2022-08-11T00:56:37;7.10;;;6.40;;
18931;SDS011;9598;50.954;3.112;2022-08-11T01:02:10;7.03;;;6.47;;
18931;SDS011;9598;50.954;3.112;2022-08-11T01:07:23;7.50;;;6.80;;
18931;SDS011;9598;50.954;3.112;2022-08-11T01:12:55;7.07;;;6.53;;
18931;SDS011;9598;50.954;3.112;2022-08-11T01:24:09;7.90;;;7.20;;
18931;SDS011;9598;50.954;3.112;2022-08-11T01:30:09;8.32;;;7.53;;
18931;SDS011;9598;50.954;3.112;2022-08-11T01:35:33;7.40;;;6.80;;
18931;SDS011;9598;50.954;3.112;2022-08-11T01:40:54;7.72;;;7.05;;
18931;SDS011;9598;50.954;3.112;2022-08-11T01:46:18;8.20;;;7.50;;
18931;SDS011;9598;50.954;3.112;2022-08-11T01:51:30;7.40;;;6.80;;
18931;SDS011;9598;50.954;3.112;2022-08-11T01:56:48;8.05;;;7.35;;
18931;SDS011;9598;50.954;3.112;2022-08-11T02:02:25;8.07;;;7.40;;
18931;SDS011;9598;50.954;3.112;2022-08-11T02:07:53;8.45;;;7.38;;
18931;SDS011;9598;50.954;3.112;2022-08-11T02:13:04;8.77;;;7.88;;
18931;SDS011;9598;50.954;3.112;2022-08-11T02:18:15;7.65;;;6.97;;
18931;SDS011;9598;50.954;3.112;2022-08-11T02:23:28;8.20;;;7.50;;
18931;SDS011;9598;50.954;3.112;2022-08-11T02:28:47;8.70;;;7.97;;
18931;SDS011;9598;50.954;3.112;2022-08-11T02:33:59;8.88;;;8.23;;
18931;SDS011;9598;50.954;3.112;2022-08-11T02:39:13;8.18;;;7.50;;
18931;SDS011;9598;50.954;3.112;2022-08-11T02:44:20;8.50;;;7.70;;
18931;SDS011;9598;50.954;3.112;2022-08-11T02:49:35;9.02;;;8.13;;
18931;SDS011;9598;50.954;3.112;2022-08-11T02:55:00;9.55;;;8.50;;
18931;SDS011;9598;50.954;3.112;2022-08-11T03:00:23;8.80;;;8.10;;
18931;SDS011;9598;50.954;3.112;2022-08-11T03:05:32;8.57;;;7.78;;
18931;SDS011;9598;50.954;3.112;2022-08-11T03:10:50;9.35;;;8.45;;
18931;SDS011;9598;50.954;3.112;2022-08-11T03:16:20;8.90;;;8.00;;
18931;SDS011;9598;50.954;3.112;2022-08-11T03:21:46;9.43;;;8.63;;
18931;SDS011;9598;50.954;3.112;2022-08-11T03:27:01;9.45;;;8.55;;
18931;SDS011;9598;50.954;3.112;2022-08-11T03:32:19;9.60;;;8.60;;
18931;SDS011;9598;50.954;3.112;2022-08-11T03:37:36;9.27;;;7.78;;
18931;SDS011;9598;50.954;3.112;2022-08-11T03:42:54;8.52;;;7.82;;
18931;SDS011;9598;50.954;3.112;2022-08-11T03:48:12;9.80;;;8.80;;
18931;SDS011;9598;50.954;3.112;2022-08-11T03:53:22;10.85;;;9.18;;
18931;SDS011;9598;50.954;3.112;2022-08-11T03:58:51;10.38;;;9.38;;
18931;SDS011;9598;50.954;3.112;2022-08-11T04:04:42;9.38;;;8.65;;
18931;SDS011;9598;50.954;3.112;2022-08-11T04:15:57;9.13;;;8.43;;
18931;SDS011;9598;50.954;3.112;2022-08-11T04:21:19;9.65;;;8.63;;
18931;SDS011;9598;50.954;3.112;2022-08-11T04:32:41;9.80;;;8.65;;
18931;SDS011;9598;50.954;3.112;2022-08-11T04:49:37;10.88;;;9.73;;
18931;SDS011;9598;50.954;3.112;2022-08-11T04:55:18;13.65;;;9.85;;
18931;SDS011;9598;50.954;3.112;2022-08-11T05:00:49;21.75;;;10.10;;
18931;SDS011;9598;50.954;3.112;2022-08-11T05:12:14;12.30;;;9.80;;
18931;SDS011;9598;50.954;3.112;2022-08-11T05:17:39;11.10;;;9.98;;
18931;SDS011;9598;50.954;3.112;2022-08-11T05:23:04;10.77;;;9.70;;
18931;SDS011;9598;50.954;3.112;2022-08-11T05:28:30;10.55;;;9.45;;
18931;SDS011;9598;50.954;3.112;2022-08-11T05:33:54;10.95;;;9.85;;
18931;SDS011;9598;50.954;3.112;2022-08-11T05:39:18;11.35;;;8.90;;
18931;SDS011;9598;50.954;3.112;2022-08-11T05:44:43;11.55;;;8.73;;
18931;SDS011;9598;50.954;3.112;2022-08-11T05:50:05;10.77;;;9.65;;
18931;SDS011;9598;50.954;3.112;2022-08-11T05:55:29;10.85;;;8.82;;
18931;SDS011;9598;50.954;3.112;2022-08-11T06:00:50;11.00;;;9.80;;
18931;SDS011;9598;50.954;3.112;2022-08-11T06:05:53;9.95;;;8.98;;
18931;SDS011;9598;50.954;3.112;2022-08-11T06:11:03;10.98;;;10.05;;
18931;SDS011;9598;50.954;3.112;2022-08-11T06:16:06;10.55;;;9.38;;
18931;SDS011;9598;50.954;3.112;2022-08-11T06:21:09;10.00;;;8.93;;
18931;SDS011;9598;50.954;3.112;2022-08-11T06:26:13;11.77;;;9.70;;
18931;SDS011;9598;50.954;3.112;2022-08-11T06:31:17;14.57;;;10.18;;
18931;SDS011;9598;50.954;3.112;2022-08-11T06:36:25;10.10;;;9.05;;
18931;SDS011;9598;50.954;3.112;2022-08-11T06:41:37;10.02;;;9.02;;
18931;SDS011;9598;50.954;3.112;2022-08-11T06:46:45;8.70;;;7.90;;
18931;SDS011;9598;50.954;3.112;2022-08-11T06:51:50;9.80;;;8.80;;
18931;SDS011;9598;50.954;3.112;2022-08-11T06:56:53;9.77;;;8.60;;
18931;SDS011;9598;50.954;3.112;2022-08-11T07:02:16;11.25;;;8.88;;
18931;SDS011;9598;50.954;3.112;2022-08-11T07:07:33;9.77;;;8.40;;
18931;SDS011;9598;50.954;3.112;2022-08-11T07:13:10;11.20;;;9.05;;
18931;SDS011;9598;50.954;3.112;2022-08-11T07:18:34;8.75;;;7.85;;
18931;SDS011;9598;50.954;3.112;2022-08-11T07:23:54;8.48;;;7.15;;
18931;SDS011;9598;50.954;3.112;2022-08-11T07:29:17;11.13;;;8.50;;
18931;SDS011;9598;50.954;3.112;2022-08-11T07:34:21;8.65;;;7.75;;
18931;SDS011;9598;50.954;3.112;2022-08-11T07:39:27;10.23;;;7.60;;
18931;SDS011;9598;50.954;3.112;2022-08-11T07:44:34;10.40;;;7.82;;
18931;SDS011;9598;50.954;3.112;2022-08-11T07:49:57;9.95;;;7.88;;
18931;SDS011;9598;50.954;3.112;2022-08-11T07:55:18;8.93;;;7.32;;
18931;SDS011;9598;50.954;3.112;2022-08-11T08:00:22;9.77;;;7.55;;
18931;SDS011;9598;50.954;3.112;2022-08-11T08:05:43;9.13;;;8.25;;
18931;SDS011;9598;50.954;3.112;2022-08-11T08:11:03;10.02;;;6.65;;
18931;SDS011;9598;50.954;3.112;2022-08-11T08:16:24;7.55;;;6.75;;
18931;SDS011;9598;50.954;3.112;2022-08-11T08:21:44;6.75;;;6.03;;
18931;SDS011;9598;50.954;3.112;2022-08-11T08:26:47;7.22;;;5.68;;
18931;SDS011;9598;50.954;3.112;2022-08-11T08:32:00;8.77;;;5.80;;
18931;SDS011;9598;50.954;3.112;2022-08-11T08:37:03;7.63;;;5.43;;
18931;SDS011;9598;50.954;3.112;2022-08-11T08:42:08;6.47;;;5.30;;
18931;SDS011;9598;50.954;3.112;2022-08-11T08:47:13;6.10;;;4.85;;
18931;SDS011;9598;50.954;3.112;2022-08-11T08:52:18;5.60;;;4.82;;
18931;SDS011;9598;50.954;3.112;2022-08-11T08:57:23;5.07;;;4.57;;
18931;SDS011;9598;50.954;3.112;2022-08-11T09:02:30;7.70;;;4.82;;
18931;SDS011;9598;50.954;3.112;2022-08-11T09:07:33;5.13;;;4.18;;
18931;SDS011;9598;50.954;3.112;2022-08-11T09:12:37;5.75;;;3.90;;
18931;SDS011;9598;50.954;3.112;2022-08-11T09:17:44;4.72;;;3.85;;
18931;SDS011;9598;50.954;3.112;2022-08-11T09:22:47;4.90;;;3.53;;
18931;SDS011;9598;50.954;3.112;2022-08-11T09:28:09;4.63;;;4.22;;
18931;SDS011;9598;50.954;3.112;2022-08-11T09:33:15;6.30;;;4.15;;
18931;SDS011;9598;50.954;3.112;2022-08-11T09:38:18;5.32;;;3.40;;
18931;SDS011;9598;50.954;3.112;2022-08-11T09:43:41;5.00;;;3.95;;
18931;SDS011;9598;50.954;3.112;2022-08-11T09:49:04;11.38;;;3.97;;
18931;SDS011;9598;50.954;3.112;2022-08-11T09:54:06;4.60;;;3.55;;
18931;SDS011;9598;50.954;3.112;2022-08-11T09:59:09;4.68;;;3.78;;
18931;SDS011;9598;50.954;3.112;2022-08-11T10:04:13;5.93;;;3.67;;
18931;SDS011;9598;50.954;3.112;2022-08-11T10:09:18;3.90;;;3.47;;
18931;SDS011;9598;50.954;3.112;2022-08-11T10:14:22;5.32;;;3.60;;
18931;SDS011;9598;50.954;3.112;2022-08-11T10:19:44;6.18;;;3.35;;
18931;SDS011;9598;50.954;3.112;2022-08-11T10:24:48;7.85;;;3.95;;
18931;SDS011;9598;50.954;3.112;2022-08-11T10:30:09;4.93;;;3.38;;
18931;SDS011;9598;50.954;3.112;2022-08-11T10:35:31;3.45;;;3.15;;
18931;SDS011;9598;50.954;3.112;2022-08-11T10:40:33;5.75;;;3.60;;
18931;SDS011;9598;50.954;3.112;2022-08-11T10:45:36;6.05;;;3.35;;
18931;SDS011;9598;50.954;3.112;2022-08-11T10:50:58;4.45;;;3.45;;
18931;SDS011;9598;50.954;3.112;2022-08-11T10:56:17;4.65;;;2.78;;
18931;SDS011;9598;50.954;3.112;2022-08-11T11:01:38;3.75;;;3.35;;
18931;SDS011;9598;50.954;3.112;2022-08-11T11:06:48;4.10;;;3.20;;
18931;SDS011;9598;50.954;3.112;2022-08-11T11:11:55;3.60;;;3.03;;
18931;SDS011;9598;50.954;3.112;2022-08-11T11:17:23;3.50;;;3.13;;
18931;SDS011;9598;50.954;3.112;2022-08-11T11:22:47;3.63;;;3.20;;
18931;SDS011;9598;50.954;3.112;2022-08-11T11:27:58;4.78;;;2.83;;
18931;SDS011;9598;50.954;3.112;2022-08-11T11:33:17;3.88;;;3.30;;
18931;SDS011;9598;50.954;3.112;2022-08-11T11:38:32;4.78;;;2.97;;
18931;SDS011;9598;50.954;3.112;2022-08-11T11:43:34;5.80;;;3.05;;
18931;SDS011;9598;50.954;3.112;2022-08-11T11:48:37;5.40;;;3.47;;
18931;SDS011;9598;50.954;3.112;2022-08-11T11:53:44;4.53;;;3.22;;
18931;SDS011;9598;50.954;3.112;2022-08-11T11:58:48;3.45;;;3.00;;
18931;SDS011;9598;50.954;3.112;2022-08-11T12:04:08;3.72;;;3.28;;
18931;SDS011;9598;50.954;3.112;2022-08-11T12:09:14;3.58;;;2.70;;
18931;SDS011;9598;50.954;3.112;2022-08-11T12:14:22;4.70;;;2.65;;
18931;SDS011;9598;50.954;3.112;2022-08-11T12:19:27;4.18;;;2.63;;
18931;SDS011;9598;50.954;3.112;2022-08-11T12:24:31;3.92;;;2.50;;
18931;SDS011;9598;50.954;3.112;2022-08-11T12:29:53;2.80;;;2.50;;
18931;SDS011;9598;50.954;3.112;2022-08-11T12:34:57;3.08;;;2.60;;
18931;SDS011;9598;50.954;3.112;2022-08-11T12:40:03;3.75;;;2.47;;
18931;SDS011;9598;50.954;3.112;2022-08-11T12:45:25;3.75;;;2.80;;
18931;SDS011;9598;50.954;3.112;2022-08-11T12:50:28;3.55;;;2.72;;
18931;SDS011;9598;50.954;3.112;2022-08-11T12:55:49;2.85;;;2.50;;
18931;SDS011;9598;50.954;3.112;2022-08-11T13:01:10;7.28;;;3.25;;
18931;SDS011;9598;50.954;3.112;2022-08-11T13:06:30;4.80;;;2.70;;
18931;SDS011;9598;50.954;3.112;2022-08-11T13:11:34;3.50;;;2.30;;
18931;SDS011;9598;50.954;3.112;2022-08-11T13:16:55;4.78;;;2.95;;
18931;SDS011;9598;50.954;3.112;2022-08-11T13:22:16;4.80;;;2.85;;
18931;SDS011;9598;50.954;3.112;2022-08-11T13:27:21;3.78;;;2.50;;
18931;SDS011;9598;50.954;3.112;2022-08-11T13:32:26;3.58;;;2.80;;
18931;SDS011;9598;50.954;3.112;2022-08-11T13:37:28;2.95;;;2.28;;
18931;SDS011;9598;50.954;3.112;2022-08-11T13:42:32;3.63;;;3.00;;
18931;SDS011;9598;50.954;3.112;2022-08-11T13:47:35;3.50;;;2.90;;
18931;SDS011;9598;50.954;3.112;2022-08-11T13:52:38;3.22;;;2.60;;
18931;SDS011;9598;50.954;3.112;2022-08-11T13:57:43;4.07;;;2.80;;
18931;SDS011;9598;50.954;3.112;2022-08-11T14:02:47;4.75;;;3.05;;
18931;SDS011;9598;50.954;3.112;2022-08-11T14:07:51;6.13;;;3.28;;
18931;SDS011;9598;50.954;3.112;2022-08-11T14:12:57;4.30;;;3.13;;
18931;SDS011;9598;50.954;3.112;2022-08-11T14:18:20;3.28;;;3.08;;
18931;SDS011;9598;50.954;3.112;2022-08-11T14:23:26;4.05;;;3.45;;
18931;SDS011;9598;50.954;3.112;2022-08-11T14:28:32;4.45;;;3.47;;
18931;SDS011;9598;50.954;3.112;2022-08-11T14:33:34;5.40;;;3.47;;
18931;SDS011;9598;50.954;3.112;2022-08-11T14:38:37;3.33;;;2.97;;
18931;SDS011;9598;50.954;3.112;2022-08-11T14:43:43;3.83;;;3.17;;
18931;SDS011;9598;50.954;3.112;2022-08-11T14:49:03;3.97;;;3.63;;
18931;SDS011;9598;50.954;3.112;2022-08-11T14:54:06;5.53;;;3.55;;
18931;SDS011;9598;50.954;3.112;2022-08-11T14:59:28;4.65;;;3.45;;
18931;SDS011;9598;50.954;3.112;2022-08-11T15:04:30;4.78;;;3.28;;
18931;SDS011;9598;50.954;3.112;2022-08-11T15:09:33;5.30;;;3.72;;
18931;SDS011;9598;50.954;3.112;2022-08-11T15:14:37;3.72;;;3.00;;
18931;SDS011;9598;50.954;3.112;2022-08-11T15:19:57;5.28;;;3.50;;
18931;SDS011;9598;50.954;3.112;2022-08-11T15:25:18;3.72;;;3.25;;
18931;SDS011;9598;50.954;3.112;2022-08-11T15:30:22;3.95;;;3.20;;
18931;SDS011;9598;50.954;3.112;2022-08-11T15:35:44;5.40;;;3.50;;
18931;SDS011;9598;50.954;3.112;2022-08-11T15:41:03;4.82;;;3.75;;
18931;SDS011;9598;50.954;3.112;2022-08-11T15:46:28;4.50;;;3.22;;
18931;SDS011;9598;50.954;3.112;2022-08-11T15:51:33;7.05;;;3.17;;
18931;SDS011;9598;50.954;3.112;2022-08-11T15:56:38;3.78;;;3.20;;
18931;SDS011;9598;50.954;3.112;2022-08-11T16:01:44;4.32;;;2.78;;
18931;SDS011;9598;50.954;3.112;2022-08-11T16:07:07;5.55;;;3.60;;
18931;SDS011;9598;50.954;3.112;2022-08-11T16:12:11;9.25;;;3.67;;
18931;SDS011;9598;50.954;3.112;2022-08-11T16:17:17;5.55;;;3.63;;
18931;SDS011;9598;50.954;3.112;2022-08-11T16:22:22;6.18;;;3.60;;
18931;SDS011;9598;50.954;3.112;2022-08-11T16:27:35;4.03;;;3.72;;
18931;SDS011;9598;50.954;3.112;2022-08-11T16:32:42;5.57;;;3.70;;
18931;SDS011;9598;50.954;3.112;2022-08-11T16:37:47;3.60;;;3.30;;
18931;SDS011;9598;50.954;3.112;2022-08-11T16:43:11;4.22;;;3.38;;
18931;SDS011;9598;50.954;3.112;2022-08-11T16:48:35;5.47;;;3.45;;
18931;SDS011;9598;50.954;3.112;2022-08-11T16:53:41;4.70;;;3.58;;
18931;SDS011;9598;50.954;3.112;2022-08-11T16:58:45;5.57;;;3.40;;
18931;SDS011;9598;50.954;3.112;2022-08-11T17:04:18;3.47;;;3.28;;
18931;SDS011;9598;50.954;3.112;2022-08-11T17:09:42;3.97;;;3.55;;
18931;SDS011;9598;50.954;3.112;2022-08-11T17:15:08;6.75;;;3.95;;
18931;SDS011;9598;50.954;3.112;2022-08-11T17:20:29;4.53;;;3.28;;
18931;SDS011;9598;50.954;3.112;2022-08-11T17:25:31;3.83;;;3.45;;
18931;SDS011;9598;50.954;3.112;2022-08-11T17:30:33;4.55;;;3.90;;
18931;SDS011;9598;50.954;3.112;2022-08-11T17:35:56;3.63;;;3.33;;
18931;SDS011;9598;50.954;3.112;2022-08-11T17:41:00;5.18;;;3.20;;
18931;SDS011;9598;50.954;3.112;2022-08-11T17:46:20;7.03;;;3.40;;
18931;SDS011;9598;50.954;3.112;2022-08-11T17:51:43;3.78;;;2.97;;
18931;SDS011;9598;50.954;3.112;2022-08-11T17:57:03;6.22;;;3.58;;
18931;SDS011;9598;50.954;3.112;2022-08-11T18:02:24;4.93;;;3.03;;
18931;SDS011;9598;50.954;3.112;2022-08-11T18:07:49;4.15;;;3.05;;
18931;SDS011;9598;50.954;3.112;2022-08-11T18:13:10;3.40;;;3.17;;
18931;SDS011;9598;50.954;3.112;2022-08-11T18:18:30;3.78;;;3.08;;
18931;SDS011;9598;50.954;3.112;2022-08-11T18:23:51;4.10;;;3.22;;
18931;SDS011;9598;50.954;3.112;2022-08-11T18:29:13;3.40;;;3.05;;
18931;SDS011;9598;50.954;3.112;2022-08-11T18:34:39;3.60;;;3.13;;
18931;SDS011;9598;50.954;3.112;2022-08-11T18:40:01;4.80;;;3.75;;
18931;SDS011;9598;50.954;3.112;2022-08-11T18:45:25;4.43;;;3.30;;
18931;SDS011;9598;50.954;3.112;2022-08-11T18:50:44;6.40;;;3.30;;
18931;SDS011;9598;50.954;3.112;2022-08-11T18:56:07;4.70;;;3.33;;
18931;SDS011;9598;50.954;3.112;2022-08-11T19:01:27;4.65;;;2.92;;
18931;SDS011;9598;50.954;3.112;2022-08-11T19:06:51;5.85;;;3.10;;
18931;SDS011;9598;50.954;3.112;2022-08-11T19:12:14;4.15;;;2.97;;
18931;SDS011;9598;50.954;3.112;2022-08-11T19:17:37;4.65;;;3.17;;
18931;SDS011;9598;50.954;3.112;2022-08-11T19:22:58;4.18;;;3.42;;
18931;SDS011;9598;50.954;3.112;2022-08-11T19:28:22;4.78;;;3.05;;
18931;SDS011;9598;50.954;3.112;2022-08-11T19:33:43;3.95;;;2.95;;
18931;SDS011;9598;50.954;3.112;2022-08-11T19:39:04;3.95;;;3.15;;
18931;SDS011;9598;50.954;3.112;2022-08-11T19:44:26;5.00;;;3.15;;
18931;SDS011;9598;50.954;3.112;2022-08-11T19:49:48;6.05;;;3.70;;
18931;SDS011;9598;50.954;3.112;2022-08-11T19:55:08;4.07;;;3.30;;
18931;SDS011;9598;50.954;3.112;2022-08-11T20:00:30;4.75;;;3.30;;
18931;SDS011;9598;50.954;3.112;2022-08-11T20:05:50;3.72;;;3.40;;
18931;SDS011;9598;50.954;3.112;2022-08-11T20:11:10;4.57;;;3.58;;
18931;SDS011;9598;50.954;3.112;2022-08-11T20:16:33;3.17;;;2.88;;
18931;SDS011;9598;50.954;3.112;2022-08-11T20:21:54;4.68;;;3.58;;
18931;SDS011;9598;50.954;3.112;2022-08-11T20:27:14;4.75;;;3.78;;
18931;SDS011;9598;50.954;3.112;2022-08-11T20:32:36;4.72;;;3.20;;
18931;SDS011;9598;50.954;3.112;2022-08-11T20:37:57;4.72;;;4.00;;
18931;SDS011;9598;50.954;3.112;2022-08-11T20:43:18;3.65;;;3.35;;
18931;SDS011;9598;50.954;3.112;2022-08-11T20:48:40;3.90;;;3.50;;
18931;SDS011;9598;50.954;3.112;2022-08-11T20:54:00;4.47;;;3.85;;
18931;SDS011;9598;50.954;3.112;2022-08-11T20:59:21;4.07;;;3.70;;
18931;SDS011;9598;50.954;3.112;2022-08-11T21:04:43;8.60;;;3.60;;
18931;SDS011;9598;50.954;3.112;2022-08-11T21:10:03;4.57;;;3.78;;
18931;SDS011;9598;50.954;3.112;2022-08-11T21:15:24;4.55;;;4.10;;
18931;SDS011;9598;50.954;3.112;2022-08-11T21:20:50;3.92;;;3.53;;
18931;SDS011;9598;50.954;3.112;2022-08-11T21:26:12;7.72;;;3.90;;
18931;SDS011;9598;50.954;3.112;2022-08-11T21:31:34;4.57;;;4.03;;
18931;SDS011;9598;50.954;3.112;2022-08-11T21:36:55;5.28;;;3.67;;
18931;SDS011;9598;50.954;3.112;2022-08-11T21:42:17;5.22;;;4.32;;
18931;SDS011;9598;50.954;3.112;2022-08-11T21:47:38;6.30;;;4.35;;
18931;SDS011;9598;50.954;3.112;2022-08-11T21:53:01;5.88;;;4.43;;
18931;SDS011;9598;50.954;3.112;2022-08-11T21:58:20;6.20;;;5.32;;
18931;SDS011;9598;50.954;3.112;2022-08-11T22:03:42;5.88;;;5.30;;
18931;SDS011;9598;50.954;3.112;2022-08-11T22:09:04;5.47;;;4.68;;
18931;SDS011;9598;50.954;3.112;2022-08-11T22:14:23;4.72;;;4.28;;
18931;SDS011;9598;50.954;3.112;2022-08-11T22:19:42;4.75;;;4.25;;
18931;SDS011;9598;50.954;3.112;2022-08-11T22:25:03;5.93;;;4.60;;
18931;SDS011;9598;50.954;3.112;2022-08-11T22:30:24;3.95;;;3.58;;
18931;SDS011;9598;50.954;3.112;2022-08-11T22:35:44;5.57;;;3.70;;
18931;SDS011;9598;50.954;3.112;2022-08-11T22:41:07;4.45;;;4.05;;
18931;SDS011;9598;50.954;3.112;2022-08-11T22:46:27;5.30;;;4.13;;
18931;SDS011;9598;50.954;3.112;2022-08-11T22:51:48;11.80;;;4.70;;
18931;SDS011;9598;50.954;3.112;2022-08-11T22:57:10;4.55;;;4.18;;
18931;SDS011;9598;50.954;3.112;2022-08-11T23:02:30;5.03;;;4.40;;
18931;SDS011;9598;50.954;3.112;2022-08-11T23:07:51;5.82;;;4.40;;
18931;SDS011;9598;50.954;3.112;2022-08-11T23:13:13;6.65;;;4.28;;
18931;SDS011;9598;50.954;3.112;2022-08-11T23:18:33;4.47;;;4.18;;
18931;SDS011;9598;50.954;3.112;2022-08-11T23:23:56;4.68;;;4.28;;
18931;SDS011;9598;50.954;3.112;2022-08-11T23:29:17;5.00;;;4.50;;
18931;SDS011;9598;50.954;3.112;2022-08-11T23:34:38;6.30;;;4.78;;
18931;SDS011;9598;50.954;3.112;2022-08-11T23:40:00;5.03;;;4.63;;
18931;SDS011;9598;50.954;3.112;2022-08-11T23:45:21;7.45;;;6.03;;
18931;SDS011;9598;50.954;3.112;2022-08-11T23:50:42;5.18;;;4.78;;
18931;SDS011;9598;50.954;3.112;2022-08-11T23:56:05;6.03;;;4.85;;
